Airport View

Enter AWOS ICAO identifier for current METAR.

ex. KFNL

KRPD 171309Z AUTO 15004KT 1 1/4SM -SN OVC003 01/M09 A2989 RMK AO2 T00051090

17 Nov 2019 13:09

Frequency: 120.525

Phone: 715-458-4481

Other Area AWOS: KY23 - KUBE - KLUM - KRCX

TAF KEAU 171121Z 1712/1812 18006KT 1 1/2SM -SN BR BKN008 OVC013 FM171500 24006KT 2SM BR OVC008 FM171900 27007KT P6SM OVC013 FM180300 VRB03KT P6SM OVC020